Aalsmeer, Netherlands
Current Conditions -  °F | °C
As of 1:25 AM on Sunday 21 Dec 2014 (Local Time) from EHAM Reporting Station
Few Clouds Few Clouds  
Wind Chill: 37°   Ceiling: Unl
Heat Index: 43°   Visibility: 6mi
Dew Point: 39°   Wind: 12mph
Humidity: 87%   Direction: 270°W
Pressure: 30.33"   Gusts: NA
Location:  52.26°N, 4.76°E
Report Text: EHAM 210025Z 27010KT 9999 FEW022 06/04 Q1027 NOSIG
Loading
Personal Weather Stations






























Interactive Weather Map New forecast layout! Learn more

10-Day Weather Forecast

Advertisements
Track Severe Weather on mobile